sensor_id;sensor_type;location;lat;lon;timestamp;P1;durP1;ratioP1;P2;durP2;ratioP2
7747;SDS011;3918;42.564;23.164;2023-03-05T00:00:21;31.85;;;15.98;;
7747;SDS011;3918;42.564;23.164;2023-03-05T00:02:48;34.22;;;15.40;;
7747;SDS011;3918;42.564;23.164;2023-03-05T00:05:14;35.30;;;16.13;;
7747;SDS011;3918;42.564;23.164;2023-03-05T00:07:41;34.28;;;16.05;;
7747;SDS011;3918;42.564;23.164;2023-03-05T00:10:08;35.72;;;16.67;;
7747;SDS011;3918;42.564;23.164;2023-03-05T00:12:35;32.70;;;15.88;;
7747;SDS011;3918;42.564;23.164;2023-03-05T00:15:02;29.73;;;15.07;;
7747;SDS011;3918;42.564;23.164;2023-03-05T00:17:31;41.03;;;16.33;;
7747;SDS011;3918;42.564;23.164;2023-03-05T00:19:58;28.10;;;14.35;;
7747;SDS011;3918;42.564;23.164;2023-03-05T00:22:25;31.90;;;15.43;;
7747;SDS011;3918;42.564;23.164;2023-03-05T00:24:52;28.35;;;14.43;;
7747;SDS011;3918;42.564;23.164;2023-03-05T00:27:19;30.05;;;14.05;;
7747;SDS011;3918;42.564;23.164;2023-03-05T00:29:46;30.52;;;14.20;;
7747;SDS011;3918;42.564;23.164;2023-03-05T00:32:12;23.02;;;13.75;;
7747;SDS011;3918;42.564;23.164;2023-03-05T00:34:41;29.67;;;13.57;;
7747;SDS011;3918;42.564;23.164;2023-03-05T00:37:07;29.05;;;15.13;;
7747;SDS011;3918;42.564;23.164;2023-03-05T00:39:34;31.08;;;14.70;;
7747;SDS011;3918;42.564;23.164;2023-03-05T00:42:01;33.33;;;15.00;;
7747;SDS011;3918;42.564;23.164;2023-03-05T00:44:27;29.23;;;15.45;;
7747;SDS011;3918;42.564;23.164;2023-03-05T00:46:54;30.52;;;15.55;;
7747;SDS011;3918;42.564;23.164;2023-03-05T00:49:21;32.50;;;16.27;;
7747;SDS011;3918;42.564;23.164;2023-03-05T00:51:49;32.15;;;16.30;;
7747;SDS011;3918;42.564;23.164;2023-03-05T00:54:16;34.88;;;14.65;;
7747;SDS011;3918;42.564;23.164;2023-03-05T00:56:43;45.13;;;22.03;;
7747;SDS011;3918;42.564;23.164;2023-03-05T00:59:10;38.67;;;18.48;;
7747;SDS011;3918;42.564;23.164;2023-03-05T01:01:37;33.20;;;17.08;;
7747;SDS011;3918;42.564;23.164;2023-03-05T01:04:04;38.65;;;16.55;;
7747;SDS011;3918;42.564;23.164;2023-03-05T01:06:30;39.35;;;18.25;;
7747;SDS011;3918;42.564;23.164;2023-03-05T01:08:59;35.03;;;17.15;;
7747;SDS011;3918;42.564;23.164;2023-03-05T01:11:25;37.40;;;17.40;;
7747;SDS011;3918;42.564;23.164;2023-03-05T01:13:52;38.72;;;19.40;;
7747;SDS011;3918;42.564;23.164;2023-03-05T01:16:19;40.67;;;18.17;;
7747;SDS011;3918;42.564;23.164;2023-03-05T01:18:46;44.35;;;17.88;;
7747;SDS011;3918;42.564;23.164;2023-03-05T01:21:13;36.85;;;18.05;;
7747;SDS011;3918;42.564;23.164;2023-03-05T01:23:40;41.28;;;19.02;;
7747;SDS011;3918;42.564;23.164;2023-03-05T01:26:08;41.95;;;18.40;;
7747;SDS011;3918;42.564;23.164;2023-03-05T01:28:35;39.92;;;18.65;;
7747;SDS011;3918;42.564;23.164;2023-03-05T01:31:05;35.00;;;18.48;;
7747;SDS011;3918;42.564;23.164;2023-03-05T01:33:33;36.17;;;17.50;;
7747;SDS011;3918;42.564;23.164;2023-03-05T01:35:59;39.50;;;17.52;;
7747;SDS011;3918;42.564;23.164;2023-03-05T01:38:26;36.90;;;16.70;;
7747;SDS011;3918;42.564;23.164;2023-03-05T01:40:53;37.25;;;18.42;;
7747;SDS011;3918;42.564;23.164;2023-03-05T01:43:22;38.22;;;18.42;;
7747;SDS011;3918;42.564;23.164;2023-03-05T01:49:00;39.20;;;16.35;;
7747;SDS011;3918;42.564;23.164;2023-03-05T01:51:32;35.15;;;16.83;;
7747;SDS011;3918;42.564;23.164;2023-03-05T01:54:03;37.65;;;16.77;;
7747;SDS011;3918;42.564;23.164;2023-03-05T01:56:32;38.95;;;16.80;;
7747;SDS011;3918;42.564;23.164;2023-03-05T01:59:01;45.85;;;16.48;;
7747;SDS011;3918;42.564;23.164;2023-03-05T02:01:29;31.98;;;16.40;;
7747;SDS011;3918;42.564;23.164;2023-03-05T02:03:59;35.17;;;17.17;;
7747;SDS011;3918;42.564;23.164;2023-03-05T02:06:26;36.97;;;16.30;;
7747;SDS011;3918;42.564;23.164;2023-03-05T02:08:54;34.85;;;15.88;;
7747;SDS011;3918;42.564;23.164;2023-03-05T02:11:21;33.60;;;16.48;;
7747;SDS011;3918;42.564;23.164;2023-03-05T02:13:48;36.08;;;16.05;;
7747;SDS011;3918;42.564;23.164;2023-03-05T02:16:16;36.75;;;16.50;;
7747;SDS011;3918;42.564;23.164;2023-03-05T02:18:43;29.00;;;15.07;;
7747;SDS011;3918;42.564;23.164;2023-03-05T02:21:11;41.72;;;17.58;;
7747;SDS011;3918;42.564;23.164;2023-03-05T02:23:37;36.90;;;14.93;;
7747;SDS011;3918;42.564;23.164;2023-03-05T02:26:05;30.80;;;15.77;;
7747;SDS011;3918;42.564;23.164;2023-03-05T02:28:34;34.55;;;15.80;;
7747;SDS011;3918;42.564;23.164;2023-03-05T02:31:07;38.08;;;17.17;;
7747;SDS011;3918;42.564;23.164;2023-03-05T02:33:35;35.28;;;17.00;;
7747;SDS011;3918;42.564;23.164;2023-03-05T02:36:02;35.90;;;15.93;;
7747;SDS011;3918;42.564;23.164;2023-03-05T02:38:30;35.38;;;16.90;;
7747;SDS011;3918;42.564;23.164;2023-03-05T02:40:57;36.25;;;15.27;;
7747;SDS011;3918;42.564;23.164;2023-03-05T02:43:24;35.70;;;17.30;;
7747;SDS011;3918;42.564;23.164;2023-03-05T02:45:50;34.20;;;18.50;;
7747;SDS011;3918;42.564;23.164;2023-03-05T02:48:17;35.15;;;17.17;;
7747;SDS011;3918;42.564;23.164;2023-03-05T02:50:44;37.92;;;17.38;;
7747;SDS011;3918;42.564;23.164;2023-03-05T02:53:12;35.40;;;16.58;;
7747;SDS011;3918;42.564;23.164;2023-03-05T02:55:40;34.95;;;15.70;;
7747;SDS011;3918;42.564;23.164;2023-03-05T02:58:07;40.67;;;16.90;;
7747;SDS011;3918;42.564;23.164;2023-03-05T03:00:34;35.92;;;17.40;;
7747;SDS011;3918;42.564;23.164;2023-03-05T03:03:00;36.58;;;18.35;;
7747;SDS011;3918;42.564;23.164;2023-03-05T03:05:27;36.72;;;18.48;;
7747;SDS011;3918;42.564;23.164;2023-03-05T03:07:54;40.35;;;20.92;;
7747;SDS011;3918;42.564;23.164;2023-03-05T03:10:20;38.58;;;16.95;;
7747;SDS011;3918;42.564;23.164;2023-03-05T03:12:49;33.75;;;17.48;;
7747;SDS011;3918;42.564;23.164;2023-03-05T03:15:16;43.40;;;19.05;;
7747;SDS011;3918;42.564;23.164;2023-03-05T03:17:43;42.35;;;19.98;;
7747;SDS011;3918;42.564;23.164;2023-03-05T03:20:11;53.38;;;22.02;;
7747;SDS011;3918;42.564;23.164;2023-03-05T03:22:40;43.40;;;21.50;;
7747;SDS011;3918;42.564;23.164;2023-03-05T03:25:08;88.13;;;20.50;;
7747;SDS011;3918;42.564;23.164;2023-03-05T03:27:37;80.07;;;22.65;;
7747;SDS011;3918;42.564;23.164;2023-03-05T03:30:05;127.82;;;20.70;;
7747;SDS011;3918;42.564;23.164;2023-03-05T03:32:33;53.80;;;20.33;;
7747;SDS011;3918;42.564;23.164;2023-03-05T03:34:59;47.30;;;21.38;;
7747;SDS011;3918;42.564;23.164;2023-03-05T03:37:27;25.58;;;13.60;;
7747;SDS011;3918;42.564;23.164;2023-03-05T03:39:53;32.77;;;14.67;;
7747;SDS011;3918;42.564;23.164;2023-03-05T03:42:21;36.20;;;17.80;;
7747;SDS011;3918;42.564;23.164;2023-03-05T03:44:48;36.65;;;17.17;;
7747;SDS011;3918;42.564;23.164;2023-03-05T03:47:17;23.90;;;12.07;;
7747;SDS011;3918;42.564;23.164;2023-03-05T03:49:44;29.73;;;13.27;;
7747;SDS011;3918;42.564;23.164;2023-03-05T03:52:10;16.88;;;8.23;;
7747;SDS011;3918;42.564;23.164;2023-03-05T03:54:37;22.77;;;11.90;;
7747;SDS011;3918;42.564;23.164;2023-03-05T03:57:05;29.20;;;11.70;;
7747;SDS011;3918;42.564;23.164;2023-03-05T03:59:31;31.80;;;12.60;;
7747;SDS011;3918;42.564;23.164;2023-03-05T04:01:58;29.17;;;14.93;;
7747;SDS011;3918;42.564;23.164;2023-03-05T04:04:27;25.90;;;12.77;;
7747;SDS011;3918;42.564;23.164;2023-03-05T04:06:54;33.97;;;14.63;;
7747;SDS011;3918;42.564;23.164;2023-03-05T04:09:21;30.50;;;13.53;;
7747;SDS011;3918;42.564;23.164;2023-03-05T04:11:48;37.03;;;15.13;;
7747;SDS011;3918;42.564;23.164;2023-03-05T04:14:14;26.02;;;12.25;;
7747;SDS011;3918;42.564;23.164;2023-03-05T04:16:41;36.37;;;15.90;;
7747;SDS011;3918;42.564;23.164;2023-03-05T04:19:08;28.27;;;14.30;;
7747;SDS011;3918;42.564;23.164;2023-03-05T04:21:36;35.90;;;14.40;;
7747;SDS011;3918;42.564;23.164;2023-03-05T04:24:04;33.93;;;14.93;;
7747;SDS011;3918;42.564;23.164;2023-03-05T04:26:32;29.83;;;14.77;;
7747;SDS011;3918;42.564;23.164;2023-03-05T04:28:59;32.10;;;15.35;;
7747;SDS011;3918;42.564;23.164;2023-03-05T04:31:25;27.58;;;15.38;;
7747;SDS011;3918;42.564;23.164;2023-03-05T04:33:52;31.23;;;14.10;;
7747;SDS011;3918;42.564;23.164;2023-03-05T04:36:19;31.75;;;14.40;;
7747;SDS011;3918;42.564;23.164;2023-03-05T04:38:48;26.42;;;14.43;;
7747;SDS011;3918;42.564;23.164;2023-03-05T04:41:14;34.70;;;15.88;;
7747;SDS011;3918;42.564;23.164;2023-03-05T04:43:41;31.50;;;14.93;;
7747;SDS011;3918;42.564;23.164;2023-03-05T04:46:08;30.75;;;15.18;;
7747;SDS011;3918;42.564;23.164;2023-03-05T04:48:35;31.45;;;13.95;;
7747;SDS011;3918;42.564;23.164;2023-03-05T04:51:01;29.10;;;14.02;;
7747;SDS011;3918;42.564;23.164;2023-03-05T04:53:28;16.17;;;8.47;;
7747;SDS011;3918;42.564;23.164;2023-03-05T04:55:56;30.30;;;11.90;;
7747;SDS011;3918;42.564;23.164;2023-03-05T04:58:25;29.83;;;15.25;;
7747;SDS011;3918;42.564;23.164;2023-03-05T05:00:53;16.10;;;8.55;;
7747;SDS011;3918;42.564;23.164;2023-03-05T05:03:19;27.63;;;11.48;;
7747;SDS011;3918;42.564;23.164;2023-03-05T05:05:52;32.97;;;14.63;;
7747;SDS011;3918;42.564;23.164;2023-03-05T05:08:20;22.03;;;10.60;;
7747;SDS011;3918;42.564;23.164;2023-03-05T05:10:53;28.92;;;13.52;;
7747;SDS011;3918;42.564;23.164;2023-03-05T05:13:22;30.37;;;14.73;;
7747;SDS011;3918;42.564;23.164;2023-03-05T05:15:49;16.60;;;9.20;;
7747;SDS011;3918;42.564;23.164;2023-03-05T05:18:16;28.40;;;12.80;;
7747;SDS011;3918;42.564;23.164;2023-03-05T05:20:42;16.27;;;7.03;;
7747;SDS011;3918;42.564;23.164;2023-03-05T05:23:09;20.33;;;11.10;;
7747;SDS011;3918;42.564;23.164;2023-03-05T05:25:36;13.40;;;7.20;;
7747;SDS011;3918;42.564;23.164;2023-03-05T05:28:03;14.70;;;6.83;;
7747;SDS011;3918;42.564;23.164;2023-03-05T05:30:31;12.60;;;6.97;;
7747;SDS011;3918;42.564;23.164;2023-03-05T05:32:58;28.30;;;11.97;;
7747;SDS011;3918;42.564;23.164;2023-03-05T05:35:25;22.90;;;10.23;;
7747;SDS011;3918;42.564;23.164;2023-03-05T05:37:51;21.20;;;10.13;;
7747;SDS011;3918;42.564;23.164;2023-03-05T05:40:18;23.23;;;11.63;;
7747;SDS011;3918;42.564;23.164;2023-03-05T05:42:45;11.63;;;7.10;;
7747;SDS011;3918;42.564;23.164;2023-03-05T05:45:12;23.77;;;10.60;;
7747;SDS011;3918;42.564;23.164;2023-03-05T05:47:41;12.60;;;6.37;;
7747;SDS011;3918;42.564;23.164;2023-03-05T05:50:08;24.90;;;8.47;;
7747;SDS011;3918;42.564;23.164;2023-03-05T05:52:36;23.80;;;10.90;;
7747;SDS011;3918;42.564;23.164;2023-03-05T05:55:03;23.90;;;11.03;;
7747;SDS011;3918;42.564;23.164;2023-03-05T05:57:30;24.60;;;12.07;;
7747;SDS011;3918;42.564;23.164;2023-03-05T05:59:57;27.60;;;13.37;;
7747;SDS011;3918;42.564;23.164;2023-03-05T06:02:23;26.65;;;10.30;;
7747;SDS011;3918;42.564;23.164;2023-03-05T06:04:53;15.30;;;8.75;;
7747;SDS011;3918;42.564;23.164;2023-03-05T06:07:19;26.53;;;11.60;;
7747;SDS011;3918;42.564;23.164;2023-03-05T06:09:46;16.07;;;8.40;;
7747;SDS011;3918;42.564;23.164;2023-03-05T06:12:13;21.00;;;11.57;;
7747;SDS011;3918;42.564;23.164;2023-03-05T06:14:40;24.70;;;11.07;;
7747;SDS011;3918;42.564;23.164;2023-03-05T06:17:07;25.55;;;10.57;;
7747;SDS011;3918;42.564;23.164;2023-03-05T06:19:33;12.73;;;6.88;;
7747;SDS011;3918;42.564;23.164;2023-03-05T06:22:02;19.20;;;8.82;;
7747;SDS011;3918;42.564;23.164;2023-03-05T06:24:28;18.45;;;8.60;;
7747;SDS011;3918;42.564;23.164;2023-03-05T06:26:55;15.20;;;7.15;;
7747;SDS011;3918;42.564;23.164;2023-03-05T06:29:22;4.68;;;3.67;;
7747;SDS011;3918;42.564;23.164;2023-03-05T06:31:49;9.77;;;5.03;;
7747;SDS011;3918;42.564;23.164;2023-03-05T06:34:15;11.10;;;5.90;;
7747;SDS011;3918;42.564;23.164;2023-03-05T06:36:42;15.52;;;6.78;;
7747;SDS011;3918;42.564;23.164;2023-03-05T06:39:10;10.77;;;5.85;;
7747;SDS011;3918;42.564;23.164;2023-03-05T06:41:37;16.90;;;7.82;;
7747;SDS011;3918;42.564;23.164;2023-03-05T06:44:04;13.75;;;6.15;;
7747;SDS011;3918;42.564;23.164;2023-03-05T06:46:31;12.60;;;6.43;;
7747;SDS011;3918;42.564;23.164;2023-03-05T06:48:59;10.98;;;5.05;;
7747;SDS011;3918;42.564;23.164;2023-03-05T06:51:28;14.70;;;6.50;;
7747;SDS011;3918;42.564;23.164;2023-03-05T06:53:58;12.43;;;5.97;;
7747;SDS011;3918;42.564;23.164;2023-03-05T06:56:27;13.77;;;8.32;;
7747;SDS011;3918;42.564;23.164;2023-03-05T06:58:54;11.07;;;5.93;;
7747;SDS011;3918;42.564;23.164;2023-03-05T07:01:21;12.55;;;7.82;;
7747;SDS011;3918;42.564;23.164;2023-03-05T07:03:48;12.15;;;6.43;;
7747;SDS011;3918;42.564;23.164;2023-03-05T07:06:16;17.35;;;8.20;;
7747;SDS011;3918;42.564;23.164;2023-03-05T07:08:43;11.30;;;5.63;;
7747;SDS011;3918;42.564;23.164;2023-03-05T07:11:11;16.85;;;8.60;;
7747;SDS011;3918;42.564;23.164;2023-03-05T07:13:40;14.30;;;7.30;;
7747;SDS011;3918;42.564;23.164;2023-03-05T07:16:08;14.10;;;6.35;;
7747;SDS011;3918;42.564;23.164;2023-03-05T07:18:36;18.60;;;8.15;;
7747;SDS011;3918;42.564;23.164;2023-03-05T07:21:03;9.88;;;5.05;;
7747;SDS011;3918;42.564;23.164;2023-03-05T07:23:30;20.77;;;9.00;;
7747;SDS011;3918;42.564;23.164;2023-03-05T07:25:59;13.15;;;6.55;;
7747;SDS011;3918;42.564;23.164;2023-03-05T07:28:26;16.52;;;9.05;;
7747;SDS011;3918;42.564;23.164;2023-03-05T07:30:55;22.08;;;10.63;;
7747;SDS011;3918;42.564;23.164;2023-03-05T07:33:23;25.88;;;10.43;;
7747;SDS011;3918;42.564;23.164;2023-03-05T07:35:50;9.40;;;6.10;;
7747;SDS011;3918;42.564;23.164;2023-03-05T07:38:16;14.68;;;7.95;;
7747;SDS011;3918;42.564;23.164;2023-03-05T07:40:43;25.05;;;10.48;;
7747;SDS011;3918;42.564;23.164;2023-03-05T07:43:10;14.32;;;7.75;;
7747;SDS011;3918;42.564;23.164;2023-03-05T07:45:38;21.52;;;9.85;;
7747;SDS011;3918;42.564;23.164;2023-03-05T07:48:07;15.13;;;7.65;;
7747;SDS011;3918;42.564;23.164;2023-03-05T07:50:37;17.42;;;9.48;;
7747;SDS011;3918;42.564;23.164;2023-03-05T07:53:04;21.63;;;10.57;;
7747;SDS011;3918;42.564;23.164;2023-03-05T07:55:31;23.05;;;11.20;;
7747;SDS011;3918;42.564;23.164;2023-03-05T07:57:57;17.85;;;8.60;;
7747;SDS011;3918;42.564;23.164;2023-03-05T08:00:24;21.63;;;9.27;;
7747;SDS011;3918;42.564;23.164;2023-03-05T08:02:51;19.63;;;8.50;;
7747;SDS011;3918;42.564;23.164;2023-03-05T08:05:19;26.00;;;12.45;;
7747;SDS011;3918;42.564;23.164;2023-03-05T08:07:46;11.45;;;5.80;;
7747;SDS011;3918;42.564;23.164;2023-03-05T08:10:13;12.98;;;7.78;;
7747;SDS011;3918;42.564;23.164;2023-03-05T08:12:40;13.10;;;8.35;;
7747;SDS011;3918;42.564;23.164;2023-03-05T08:15:07;25.38;;;11.20;;
7747;SDS011;3918;42.564;23.164;2023-03-05T08:17:34;22.83;;;10.82;;
7747;SDS011;3918;42.564;23.164;2023-03-05T08:20:01;14.23;;;6.63;;
7747;SDS011;3918;42.564;23.164;2023-03-05T08:22:30;25.73;;;7.80;;
7747;SDS011;3918;42.564;23.164;2023-03-05T08:24:58;15.13;;;7.43;;
7747;SDS011;3918;42.564;23.164;2023-03-05T08:27:25;20.52;;;10.35;;
7747;SDS011;3918;42.564;23.164;2023-03-05T08:29:52;23.00;;;11.50;;
7747;SDS011;3918;42.564;23.164;2023-03-05T08:32:18;23.65;;;11.10;;
7747;SDS011;3918;42.564;23.164;2023-03-05T08:34:45;22.15;;;10.75;;
7747;SDS011;3918;42.564;23.164;2023-03-05T08:37:12;26.70;;;12.07;;
7747;SDS011;3918;42.564;23.164;2023-03-05T08:39:40;13.02;;;8.13;;
7747;SDS011;3918;42.564;23.164;2023-03-05T08:42:07;24.25;;;11.38;;
7747;SDS011;3918;42.564;23.164;2023-03-05T08:44:34;19.20;;;10.63;;
7747;SDS011;3918;42.564;23.164;2023-03-05T08:47:00;21.20;;;10.57;;
7747;SDS011;3918;42.564;23.164;2023-03-05T08:49:27;29.33;;;12.25;;
7747;SDS011;3918;42.564;23.164;2023-03-05T08:51:54;26.13;;;12.00;;
7747;SDS011;3918;42.564;23.164;2023-03-05T08:54:21;13.30;;;7.38;;
7747;SDS011;3918;42.564;23.164;2023-03-05T08:56:49;17.75;;;8.27;;
7747;SDS011;3918;42.564;23.164;2023-03-05T08:59:15;14.75;;;8.63;;
7747;SDS011;3918;42.564;23.164;2023-03-05T09:01:42;13.27;;;6.93;;
7747;SDS011;3918;42.564;23.164;2023-03-05T09:04:09;14.60;;;6.47;;
7747;SDS011;3918;42.564;23.164;2023-03-05T09:06:36;25.10;;;10.82;;
7747;SDS011;3918;42.564;23.164;2023-03-05T09:09:04;22.95;;;10.90;;
7747;SDS011;3918;42.564;23.164;2023-03-05T09:11:31;20.23;;;10.32;;
7747;SDS011;3918;42.564;23.164;2023-03-05T09:14:01;22.33;;;10.55;;
7747;SDS011;3918;42.564;23.164;2023-03-05T09:16:29;18.90;;;7.25;;
7747;SDS011;3918;42.564;23.164;2023-03-05T09:18:55;21.95;;;9.43;;
7747;SDS011;3918;42.564;23.164;2023-03-05T09:21:23;20.08;;;9.52;;
7747;SDS011;3918;42.564;23.164;2023-03-05T09:23:50;19.75;;;9.18;;
7747;SDS011;3918;42.564;23.164;2023-03-05T09:26:17;14.43;;;7.50;;
7747;SDS011;3918;42.564;23.164;2023-03-05T09:28:44;21.75;;;11.05;;
7747;SDS011;3918;42.564;23.164;2023-03-05T09:31:12;18.20;;;9.07;;
7747;SDS011;3918;42.564;23.164;2023-03-05T09:33:40;17.90;;;10.35;;
7747;SDS011;3918;42.564;23.164;2023-03-05T09:36:14;21.13;;;10.90;;
7747;SDS011;3918;42.564;23.164;2023-03-05T09:38:43;17.33;;;9.95;;
7747;SDS011;3918;42.564;23.164;2023-03-05T09:41:12;7.70;;;4.43;;
7747;SDS011;3918;42.564;23.164;2023-03-05T09:43:45;22.17;;;9.40;;
7747;SDS011;3918;42.564;23.164;2023-03-05T09:46:27;19.60;;;10.52;;
7747;SDS011;3918;42.564;23.164;2023-03-05T09:49:05;23.65;;;11.02;;
7747;SDS011;3918;42.564;23.164;2023-03-05T09:51:39;20.90;;;10.02;;
7747;SDS011;3918;42.564;23.164;2023-03-05T09:54:11;16.92;;;8.90;;
7747;SDS011;3918;42.564;23.164;2023-03-05T09:56:41;11.93;;;6.20;;
7747;SDS011;3918;42.564;23.164;2023-03-05T09:59:23;18.67;;;8.30;;
7747;SDS011;3918;42.564;23.164;2023-03-05T10:01:58;22.10;;;11.68;;
7747;SDS011;3918;42.564;23.164;2023-03-05T10:04:32;19.38;;;9.85;;
7747;SDS011;3918;42.564;23.164;2023-03-05T10:07:11;20.90;;;11.27;;
7747;SDS011;3918;42.564;23.164;2023-03-05T10:09:42;20.15;;;10.55;;
7747;SDS011;3918;42.564;23.164;2023-03-05T10:12:13;22.90;;;11.55;;
7747;SDS011;3918;42.564;23.164;2023-03-05T10:14:49;27.27;;;10.25;;
7747;SDS011;3918;42.564;23.164;2023-03-05T10:17:25;19.92;;;10.15;;
7747;SDS011;3918;42.564;23.164;2023-03-05T10:20:21;17.55;;;10.20;;
7747;SDS011;3918;42.564;23.164;2023-03-05T10:28:56;15.10;;;8.25;;
7747;SDS011;3918;42.564;23.164;2023-03-05T10:34:26;26.58;;;11.70;;
7747;SDS011;3918;42.564;23.164;2023-03-05T10:37:09;20.40;;;10.50;;
7747;SDS011;3918;42.564;23.164;2023-03-05T10:39:53;17.70;;;9.20;;
7747;SDS011;3918;42.564;23.164;2023-03-05T10:42:33;18.02;;;9.63;;
7747;SDS011;3918;42.564;23.164;2023-03-05T10:45:11;19.25;;;10.43;;
7747;SDS011;3918;42.564;23.164;2023-03-05T10:47:41;19.40;;;11.30;;
7747;SDS011;3918;42.564;23.164;2023-03-05T10:50:16;21.17;;;11.02;;
7747;SDS011;3918;42.564;23.164;2023-03-05T10:52:45;23.40;;;10.57;;
7747;SDS011;3918;42.564;23.164;2023-03-05T10:55:18;21.80;;;10.48;;
7747;SDS011;3918;42.564;23.164;2023-03-05T10:57:46;20.95;;;11.80;;
7747;SDS011;3918;42.564;23.164;2023-03-05T11:00:17;25.88;;;10.93;;
7747;SDS011;3918;42.564;23.164;2023-03-05T11:02:52;20.33;;;10.13;;
7747;SDS011;3918;42.564;23.164;2023-03-05T11:05:40;21.45;;;11.23;;
7747;SDS011;3918;42.564;23.164;2023-03-05T11:11:02;22.08;;;10.40;;
7747;SDS011;3918;42.564;23.164;2023-03-05T11:13:31;20.13;;;10.85;;
7747;SDS011;3918;42.564;23.164;2023-03-05T11:15:58;23.95;;;12.65;;
7747;SDS011;3918;42.564;23.164;2023-03-05T11:18:26;23.38;;;12.00;;
7747;SDS011;3918;42.564;23.164;2023-03-05T11:21:07;12.45;;;6.47;;
7747;SDS011;3918;42.564;23.164;2023-03-05T11:23:35;22.15;;;12.13;;
7747;SDS011;3918;42.564;23.164;2023-03-05T11:26:03;21.10;;;11.38;;
7747;SDS011;3918;42.564;23.164;2023-03-05T11:28:33;17.80;;;10.10;;
7747;SDS011;3918;42.564;23.164;2023-03-05T11:31:03;26.85;;;11.45;;
7747;SDS011;3918;42.564;23.164;2023-03-05T11:33:33;25.13;;;10.07;;
7747;SDS011;3918;42.564;23.164;2023-03-05T11:36:16;20.05;;;9.38;;
7747;SDS011;3918;42.564;23.164;2023-03-05T11:38:50;15.02;;;7.07;;
7747;SDS011;3918;42.564;23.164;2023-03-05T11:41:19;19.13;;;9.55;;
7747;SDS011;3918;42.564;23.164;2023-03-05T11:43:52;21.23;;;10.75;;
7747;SDS011;3918;42.564;23.164;2023-03-05T11:46:19;16.13;;;8.80;;
7747;SDS011;3918;42.564;23.164;2023-03-05T11:48:47;21.33;;;9.45;;
7747;SDS011;3918;42.564;23.164;2023-03-05T11:51:17;25.65;;;12.07;;
7747;SDS011;3918;42.564;23.164;2023-03-05T11:53:47;27.75;;;12.30;;
7747;SDS011;3918;42.564;23.164;2023-03-05T11:56:18;23.60;;;11.48;;
7747;SDS011;3918;42.564;23.164;2023-03-05T11:58:50;26.08;;;11.68;;
7747;SDS011;3918;42.564;23.164;2023-03-05T12:01:23;20.25;;;11.32;;
7747;SDS011;3918;42.564;23.164;2023-03-05T12:03:52;17.38;;;8.27;;
7747;SDS011;3918;42.564;23.164;2023-03-05T12:06:25;20.88;;;10.75;;
7747;SDS011;3918;42.564;23.164;2023-03-05T12:08:58;18.25;;;10.52;;
7747;SDS011;3918;42.564;23.164;2023-03-05T12:11:29;20.67;;;11.48;;
7747;SDS011;3918;42.564;23.164;2023-03-05T12:13:58;18.38;;;9.73;;
7747;SDS011;3918;42.564;23.164;2023-03-05T12:16:32;23.55;;;11.15;;
7747;SDS011;3918;42.564;23.164;2023-03-05T12:19:15;13.57;;;8.02;;
7747;SDS011;3918;42.564;23.164;2023-03-05T12:21:56;20.20;;;10.02;;
7747;SDS011;3918;42.564;23.164;2023-03-05T12:24:33;21.67;;;11.43;;
7747;SDS011;3918;42.564;23.164;2023-03-05T12:27:05;19.27;;;10.45;;
7747;SDS011;3918;42.564;23.164;2023-03-05T12:29:38;19.83;;;11.32;;
7747;SDS011;3918;42.564;23.164;2023-03-05T12:35:16;22.02;;;10.57;;
7747;SDS011;3918;42.564;23.164;2023-03-05T12:38:03;17.27;;;9.63;;
7747;SDS011;3918;42.564;23.164;2023-03-05T12:40:31;14.02;;;7.85;;
7747;SDS011;3918;42.564;23.164;2023-03-05T12:42:59;15.00;;;8.80;;
7747;SDS011;3918;42.564;23.164;2023-03-05T12:45:37;18.20;;;9.93;;
7747;SDS011;3918;42.564;23.164;2023-03-05T12:51:28;20.52;;;10.43;;
7747;SDS011;3918;42.564;23.164;2023-03-05T12:56:53;17.05;;;9.48;;
7747;SDS011;3918;42.564;23.164;2023-03-05T12:59:22;15.98;;;8.90;;
7747;SDS011;3918;42.564;23.164;2023-03-05T13:01:53;16.80;;;8.95;;
7747;SDS011;3918;42.564;23.164;2023-03-05T13:04:23;12.75;;;8.23;;
7747;SDS011;3918;42.564;23.164;2023-03-05T13:06:59;14.93;;;7.75;;
7747;SDS011;3918;42.564;23.164;2023-03-05T13:09:29;25.45;;;16.23;;
7747;SDS011;3918;42.564;23.164;2023-03-05T13:11:59;18.55;;;7.68;;
7747;SDS011;3918;42.564;23.164;2023-03-05T13:14:32;13.30;;;8.13;;
7747;SDS011;3918;42.564;23.164;2023-03-05T13:17:02;12.07;;;7.75;;
7747;SDS011;3918;42.564;23.164;2023-03-05T13:19:57;13.27;;;7.63;;
7747;SDS011;3918;42.564;23.164;2023-03-05T13:22:25;10.80;;;7.28;;
7747;SDS011;3918;42.564;23.164;2023-03-05T13:25:15;10.82;;;6.57;;
7747;SDS011;3918;42.564;23.164;2023-03-05T13:27:44;14.95;;;6.78;;
7747;SDS011;3918;42.564;23.164;2023-03-05T13:30:19;18.92;;;7.60;;
7747;SDS011;3918;42.564;23.164;2023-03-05T13:32:48;13.07;;;7.20;;
7747;SDS011;3918;42.564;23.164;2023-03-05T13:35:17;12.82;;;7.18;;
7747;SDS011;3918;42.564;23.164;2023-03-05T13:37:48;14.48;;;7.30;;
7747;SDS011;3918;42.564;23.164;2023-03-05T13:40:21;19.80;;;8.30;;
7747;SDS011;3918;42.564;23.164;2023-03-05T13:42:50;19.95;;;7.97;;
7747;SDS011;3918;42.564;23.164;2023-03-05T13:45:22;15.90;;;7.63;;
7747;SDS011;3918;42.564;23.164;2023-03-05T13:47:52;14.15;;;7.60;;
7747;SDS011;3918;42.564;23.164;2023-03-05T13:50:23;14.43;;;8.60;;
7747;SDS011;3918;42.564;23.164;2023-03-05T13:52:51;14.88;;;7.45;;
7747;SDS011;3918;42.564;23.164;2023-03-05T13:55:19;19.30;;;10.05;;
7747;SDS011;3918;42.564;23.164;2023-03-05T13:57:48;14.88;;;8.02;;
7747;SDS011;3918;42.564;23.164;2023-03-05T14:00:26;15.15;;;8.63;;
7747;SDS011;3918;42.564;23.164;2023-03-05T14:02:56;20.15;;;9.10;;
7747;SDS011;3918;42.564;23.164;2023-03-05T14:05:25;17.67;;;7.97;;
7747;SDS011;3918;42.564;23.164;2023-03-05T14:07:52;16.20;;;7.45;;
7747;SDS011;3918;42.564;23.164;2023-03-05T14:10:28;15.57;;;7.97;;
7747;SDS011;3918;42.564;23.164;2023-03-05T14:12:58;15.80;;;8.15;;
7747;SDS011;3918;42.564;23.164;2023-03-05T14:15:28;36.42;;;12.93;;
7747;SDS011;3918;42.564;23.164;2023-03-05T14:18:15;22.63;;;9.55;;
7747;SDS011;3918;42.564;23.164;2023-03-05T14:20:58;22.23;;;11.18;;
7747;SDS011;3918;42.564;23.164;2023-03-05T14:23:32;32.60;;;13.07;;
7747;SDS011;3918;42.564;23.164;2023-03-05T14:28:54;18.48;;;9.35;;
7747;SDS011;3918;42.564;23.164;2023-03-05T14:31:23;23.00;;;8.82;;
7747;SDS011;3918;42.564;23.164;2023-03-05T14:33:51;25.08;;;9.32;;
7747;SDS011;3918;42.564;23.164;2023-03-05T14:36:20;18.30;;;8.65;;
7747;SDS011;3918;42.564;23.164;2023-03-05T14:38:49;13.27;;;7.53;;
7747;SDS011;3918;42.564;23.164;2023-03-05T14:41:17;16.77;;;8.10;;
7747;SDS011;3918;42.564;23.164;2023-03-05T14:43:57;19.08;;;8.05;;
7747;SDS011;3918;42.564;23.164;2023-03-05T14:46:24;20.10;;;9.25;;
7747;SDS011;3918;42.564;23.164;2023-03-05T14:48:51;17.05;;;9.38;;
7747;SDS011;3918;42.564;23.164;2023-03-05T14:51:18;17.08;;;8.90;;
7747;SDS011;3918;42.564;23.164;2023-03-05T14:53:46;20.27;;;9.15;;
7747;SDS011;3918;42.564;23.164;2023-03-05T14:56:17;21.75;;;9.30;;
7747;SDS011;3918;42.564;23.164;2023-03-05T14:58:48;22.23;;;9.65;;
7747;SDS011;3918;42.564;23.164;2023-03-05T15:01:17;20.27;;;9.23;;
7747;SDS011;3918;42.564;23.164;2023-03-05T15:03:44;20.67;;;9.40;;
7747;SDS011;3918;42.564;23.164;2023-03-05T15:06:15;20.33;;;8.70;;
7747;SDS011;3918;42.564;23.164;2023-03-05T15:08:45;27.05;;;10.35;;
7747;SDS011;3918;42.564;23.164;2023-03-05T15:11:12;23.88;;;9.55;;
7747;SDS011;3918;42.564;23.164;2023-03-05T15:13:39;27.70;;;10.20;;
7747;SDS011;3918;42.564;23.164;2023-03-05T15:16:06;20.75;;;10.55;;
7747;SDS011;3918;42.564;23.164;2023-03-05T15:18:34;18.02;;;8.85;;